Time;durP1;ratioP1;P1;durP2;ratioP2;P2;SDS_P1;SDS_P2;PMS_P1;PMS_P2;Temp;Humidity;BMP_temperature;BMP_pressure;BME280_temperature;BME280_humidity;BME280_pressure;Samples;Min_cycle;Max_cycle;Signal;HPM_P1;HPM_P2
2021/11/10 00:02:04;;;;;;;;;;;3.30;99.90;;;;;;5011112;28;19921;-70
2021/11/10 00:04:29;;;;;;;;;;;3.30;99.90;;;;;;5012489;28;19910;-70
2021/11/10 00:06:55;;;;;;;;;;;3.30;99.90;;;;;;5011618;28;19925;-69
2021/11/10 00:09:20;;;;;;;;;;;3.20;1.00;;;;;;5012479;28;19909;-69
2021/11/10 00:11:46;;;;;;;;;;;3.20;1.00;;;;;;5010743;28;19920;-69
2021/11/10 00:14:11;;;;;;;;;;;3.20;1.00;;;;;;5011614;28;19909;-70
2021/11/10 00:16:37;;;;;;;;;;;3.20;1.00;;;;;;5011201;28;20028;-69
2021/11/10 00:19:02;;;;;;;;;;;3.30;1.00;;;;;;5012417;28;20238;-69
2021/11/10 00:21:28;;;;;;;;;;;3.20;1.00;;;;;;5011680;28;19914;-69
2021/11/10 00:23:54;;;;;;;;;;;3.20;1.00;;;;;;5011262;28;19945;-70
2021/11/10 00:26:20;;;;;;;;;;;3.20;1.00;;;;;;5011493;28;19928;-69
2021/11/10 00:28:46;;;;;;;;;;;3.10;1.00;;;;;;5011625;28;20012;-69
2021/11/10 00:31:11;;;;;;;;;;;3.10;1.00;;;;;;5012096;28;19992;-69
2021/11/10 00:33:36;;;;;;;;;;;3.10;1.00;;;;;;5010517;28;20023;-69
2021/11/10 00:36:02;;;;;;;;;;;3.10;1.00;;;;;;5011442;28;20281;-70
2021/11/10 00:38:28;;;;;;;;;;;3.10;1.00;;;;;;5011547;28;19995;-70
2021/11/10 00:40:54;;;;;;;;;;;3.10;1.00;;;;;;5010695;28;20055;-69
2021/11/10 00:43:19;;;;;;;;;;;3.10;1.00;;;;;;5010300;28;20259;-69
2021/11/10 00:45:45;;;;;;;;;;;3.10;1.00;;;;;;5011447;28;19924;-70
2021/11/10 00:48:10;;;;;;;;;;;3.00;1.00;;;;;;5011213;28;19916;-70
2021/11/10 00:50:37;;;;;;;;;;;3.00;1.00;;;;;;5011245;28;19910;-70
2021/11/10 00:53:03;;;;;;;;;;;3.00;1.00;;;;;;5010564;28;19913;-69
2021/11/10 00:55:29;;;;;;;;;;;3.10;1.00;;;;;;5010936;28;20426;-70
2021/11/10 00:57:55;;;;;;;;;;;3.10;1.00;;;;;;5010878;28;19933;-70
2021/11/10 01:00:22;;;;;;;;;;;3.10;1.00;;;;;;5011579;28;19929;-69
2021/11/10 01:02:47;;;;;;;;;;;3.10;1.00;;;;;;5009162;28;19916;-69
2021/11/10 01:05:13;;;;;;;;;;;3.10;1.00;;;;;;4993363;28;19918;-70
2021/11/10 01:07:39;;;;;;;;;;;3.10;99.90;;;;;;5010792;28;19916;-71
2021/11/10 01:10:05;;;;;;;;;;;3.10;99.90;;;;;;5011234;28;19913;-69
2021/11/10 01:12:32;;;;;;;;;;;3.10;99.90;;;;;;5009585;28;20379;-69
2021/11/10 01:14:58;;;;;;;;;;;3.00;99.90;;;;;;5011008;28;20345;-69
2021/11/10 01:17:23;;;;;;;;;;;3.00;99.90;;;;;;5010692;28;19945;-69
2021/11/10 01:19:49;;;;;;;;;;;2.90;99.90;;;;;;5011102;28;19921;-70
2021/11/10 01:22:15;;;;;;;;;;;2.90;99.90;;;;;;5009921;28;20600;-70
2021/11/10 01:24:41;;;;;;;;;;;2.90;99.90;;;;;;5010729;28;19910;-70
2021/11/10 01:27:07;;;;;;;;;;;2.90;99.90;;;;;;5010101;28;19963;-69
2021/11/10 01:29:32;;;;;;;;;;;2.90;1.00;;;;;;5010467;28;20341;-69
2021/11/10 01:31:58;;;;;;;;;;;3.00;99.90;;;;;;5009676;28;19917;-69
2021/11/10 01:34:23;;;;;;;;;;;3.00;99.90;;;;;;5010886;28;19971;-69
2021/11/10 01:36:49;;;;;;;;;;;3.00;99.90;;;;;;5010180;28;19960;-70
2021/11/10 01:39:15;;;;;;;;;;;2.90;99.90;;;;;;5009938;28;19924;-70
2021/11/10 01:41:48;;;;;;;;;;;2.90;99.90;;;;;;5010040;28;19913;-70
2021/11/10 01:44:17;;;;;;;;;;;2.90;99.90;;;;;;5010142;28;20016;-70
2021/11/10 01:46:43;;;;;;;;;;;2.90;99.90;;;;;;5010001;28;20401;-70
2021/11/10 01:49:09;;;;;;;;;;;2.90;99.90;;;;;;5010417;28;19914;-70
2021/11/10 01:51:40;;;;;;;;;;;2.80;99.90;;;;;;5009630;28;20728;-70
2021/11/10 01:54:05;;;;;;;;;;;2.80;99.90;;;;;;5010261;28;19913;-70
2021/11/10 01:56:31;;;;;;;;;;;2.80;99.90;;;;;;5010380;28;19909;-71
2021/11/10 01:58:56;;;;;;;;;;;2.80;99.90;;;;;;5009908;28;19951;-69
2021/11/10 02:01:22;;;;;;;;;;;2.80;99.90;;;;;;5007441;28;19915;-70
2021/11/10 02:03:49;;;;;;;;;;;2.70;99.90;;;;;;5009308;28;20108;-70
2021/11/10 02:06:15;;;;;;;;;;;2.70;1.00;;;;;;5009290;28;19948;-69
2021/11/10 02:08:40;;;;;;;;;;;2.70;99.90;;;;;;5009712;28;19913;-68
2021/11/10 02:11:06;;;;;;;;;;;2.60;99.90;;;;;;5009375;28;19909;-71
2021/11/10 02:13:31;;;;;;;;;;;2.60;99.90;;;;;;5008437;28;19936;-70
2021/11/10 02:15:57;;;;;;;;;;;2.60;99.90;;;;;;5009992;28;19983;-70
2021/11/10 02:18:22;;;;;;;;;;;2.50;1.00;;;;;;5009359;28;19963;-70
2021/11/10 02:20:49;;;;;;;;;;;2.50;1.00;;;;;;5009386;28;20653;-70
2021/11/10 02:23:16;;;;;;;;;;;2.50;1.00;;;;;;5009015;28;19922;-71
2021/11/10 02:25:42;;;;;;;;;;;2.50;1.00;;;;;;5008599;28;19917;-70
2021/11/10 02:28:07;;;;;;;;;;;2.50;1.00;;;;;;4991706;28;19913;-70
2021/11/10 02:30:33;;;;;;;;;;;2.50;1.00;;;;;;5009581;28;19910;-70
2021/11/10 02:33:00;;;;;;;;;;;2.40;1.00;;;;;;5008030;28;20354;-71
2021/11/10 02:35:27;;;;;;;;;;;2.40;1.00;;;;;;4991520;28;19920;-70
2021/11/10 02:37:54;;;;;;;;;;;2.40;1.00;;;;;;5008627;28;19909;-70
2021/11/10 02:40:20;;;;;;;;;;;2.40;1.00;;;;;;5009433;28;19932;-70
2021/11/10 02:42:46;;;;;;;;;;;2.40;1.00;;;;;;5008170;28;19968;-71
2021/11/10 02:45:12;;;;;;;;;;;2.30;1.00;;;;;;5009384;28;19980;-70
2021/11/10 02:47:40;;;;;;;;;;;2.30;1.00;;;;;;5008396;28;19914;-70
2021/11/10 02:50:05;;;;;;;;;;;2.30;1.00;;;;;;5009452;28;19918;-70
2021/11/10 02:52:31;;;;;;;;;;;2.30;1.00;;;;;;5008547;28;19985;-70
2021/11/10 02:54:56;;;;;;;;;;;2.20;1.00;;;;;;5009978;28;19960;-70
2021/11/10 02:57:23;;;;;;;;;;;2.30;1.00;;;;;;5009364;28;19956;-71
2021/11/10 02:59:49;;;;;;;;;;;2.30;1.00;;;;;;5008852;28;20337;-70
2021/11/10 03:02:14;;;;;;;;;;;2.30;1.00;;;;;;5008023;28;19910;-70
2021/11/10 03:04:44;;;;;;;;;;;2.30;1.00;;;;;;5009338;28;19977;-70
2021/11/10 03:07:09;;;;;;;;;;;2.20;1.00;;;;;;4991412;28;20374;-70
2021/11/10 03:09:36;;;;;;;;;;;2.20;1.00;;;;;;5009173;28;19914;-70
2021/11/10 03:12:02;;;;;;;;;;;2.20;1.00;;;;;;5007785;28;20004;-70
2021/11/10 03:14:29;;;;;;;;;;;2.20;1.00;;;;;;5009166;28;19910;-69
2021/11/10 03:16:55;;;;;;;;;;;2.20;1.00;;;;;;5008607;28;19964;-69
2021/11/10 03:19:21;;;;;;;;;;;2.20;1.00;;;;;;5009006;28;20020;-69
2021/11/10 03:21:47;;;;;;;;;;;2.20;1.00;;;;;;5007714;28;20005;-68
2021/11/10 03:24:13;;;;;;;;;;;2.20;1.00;;;;;;5009045;28;19963;-70
2021/11/10 03:26:38;;;;;;;;;;;2.20;1.00;;;;;;5011655;28;19999;-70
2021/11/10 03:29:04;;;;;;;;;;;2.20;1.00;;;;;;5012811;28;20036;-70
2021/11/10 03:31:34;;;;;;;;;;;2.20;1.00;;;;;;5012520;28;19910;-70
2021/11/10 03:34:01;;;;;;;;;;;2.20;1.00;;;;;;5011452;28;19913;-71
2021/11/10 03:36:27;;;;;;;;;;;2.20;1.00;;;;;;5011881;28;20462;-71
2021/11/10 03:38:53;;;;;;;;;;;2.20;1.00;;;;;;5012516;28;19913;-71
2021/11/10 03:41:19;;;;;;;;;;;2.20;1.00;;;;;;5012191;28;19910;-71
2021/11/10 03:43:45;;;;;;;;;;;2.20;1.00;;;;;;5011571;28;19913;-72
2021/11/10 03:46:11;;;;;;;;;;;2.20;1.00;;;;;;5011988;28;19910;-71
2021/11/10 03:48:36;;;;;;;;;;;2.10;1.00;;;;;;5011921;28;19964;-71
2021/11/10 03:51:02;;;;;;;;;;;2.10;1.00;;;;;;5012254;28;19913;-70
2021/11/10 03:53:27;;;;;;;;;;;1.90;1.00;;;;;;5011338;28;19999;-70
2021/11/10 03:55:53;;;;;;;;;;;1.80;1.00;;;;;;5011783;28;20382;-71
2021/11/10 03:58:18;;;;;;;;;;;1.60;1.00;;;;;;5011529;28;20036;-70
2021/11/10 04:00:44;;;;;;;;;;;1.50;1.00;;;;;;5011446;28;20281;-71
2021/11/10 04:03:10;;;;;;;;;;;1.30;1.00;;;;;;5007753;28;19909;-70
2021/11/10 04:05:36;;;;;;;;;;;1.20;1.00;;;;;;5011474;28;19932;-70
2021/11/10 04:08:01;;;;;;;;;;;1.10;1.00;;;;;;5011597;28;20390;-71
2021/11/10 04:10:27;;;;;;;;;;;1.00;1.00;;;;;;5011328;28;20000;-71
2021/11/10 04:12:53;;;;;;;;;;;1.00;1.00;;;;;;5010442;28;19914;-71
2021/11/10 04:15:18;;;;;;;;;;;0.90;1.00;;;;;;5011970;28;19916;-70
2021/11/10 04:17:44;;;;;;;;;;;1.00;1.00;;;;;;5011134;28;19920;-71
2021/11/10 04:20:10;;;;;;;;;;;1.00;1.00;;;;;;5011899;28;20581;-71
2021/11/10 04:22:35;;;;;;;;;;;1.00;1.00;;;;;;5010190;28;19913;-71
2021/11/10 04:25:01;;;;;;;;;;;1.10;1.00;;;;;;5011842;28;20047;-71
2021/11/10 04:27:26;;;;;;;;;;;1.10;1.00;;;;;;5011176;28;20023;-70
2021/11/10 04:29:52;;;;;;;;;;;1.20;1.00;;;;;;5011422;28;19936;-71
2021/11/10 04:32:18;;;;;;;;;;;1.30;1.00;;;;;;5009794;28;19914;-71
2021/11/10 04:34:44;;;;;;;;;;;1.30;1.00;;;;;;5011491;28;19914;-71
2021/11/10 04:37:11;;;;;;;;;;;1.30;1.00;;;;;;5009696;28;19964;-70
2021/11/10 04:39:37;;;;;;;;;;;1.40;1.00;;;;;;5011557;28;20024;-70
2021/11/10 04:42:03;;;;;;;;;;;1.40;1.00;;;;;;5010171;28;20366;-70
2021/11/10 04:44:29;;;;;;;;;;;1.40;1.00;;;;;;5010791;28;19993;-70
2021/11/10 04:46:56;;;;;;;;;;;1.50;1.00;;;;;;5010586;28;20294;-72
2021/11/10 04:49:22;;;;;;;;;;;1.50;1.00;;;;;;5010990;28;19913;-70
2021/11/10 04:51:48;;;;;;;;;;;1.50;1.00;;;;;;5010056;28;19917;-71
2021/11/10 04:54:18;;;;;;;;;;;1.60;1.00;;;;;;5010963;28;19956;-70
2021/11/10 04:56:44;;;;;;;;;;;1.60;1.00;;;;;;5010644;28;19932;-70
2021/11/10 04:59:09;;;;;;;;;;;1.60;1.00;;;;;;5010689;28;20327;-70
2021/11/10 05:01:38;;;;;;;;;;;1.60;1.00;;;;;;5010612;28;19931;-71
2021/11/10 05:04:04;;;;;;;;;;;1.50;1.00;;;;;;5010178;28;19933;-69
2021/11/10 05:06:30;;;;;;;;;;;1.50;1.00;;;;;;5009784;28;19918;-70
2021/11/10 05:08:56;;;;;;;;;;;1.50;1.00;;;;;;5010707;28;19916;-71
2021/11/10 05:11:22;;;;;;;;;;;1.50;1.00;;;;;;5010755;28;20039;-71
2021/11/10 05:13:48;;;;;;;;;;;1.50;1.00;;;;;;5009505;28;19913;-70
2021/11/10 05:16:14;;;;;;;;;;;1.50;1.00;;;;;;4993038;28;19909;-68
2021/11/10 05:18:39;;;;;;;;;;;1.50;1.00;;;;;;5010118;28;19921;-69
2021/11/10 05:21:05;;;;;;;;;;;1.50;1.00;;;;;;5008335;28;20294;-73
2021/11/10 05:23:30;;;;;;;;;;;1.60;1.00;;;;;;4990851;28;19921;-70
2021/11/10 05:25:56;;;;;;;;;;;1.60;1.00;;;;;;5006460;28;20414;-69
2021/11/10 05:28:21;;;;;;;;;;;1.70;1.00;;;;;;5013709;28;20322;-67
2021/11/10 05:30:47;;;;;;;;;;;1.70;1.00;;;;;;5008506;28;19917;-68
2021/11/10 05:33:13;;;;;;;;;;;1.70;1.00;;;;;;5005796;28;19932;-68
2021/11/10 05:35:39;;;;;;;;;;;1.70;1.00;;;;;;5004150;28;19924;-69
2021/11/10 05:38:05;;;;;;;;;;;1.60;1.00;;;;;;5007739;28;20008;-70
2021/11/10 05:40:31;;;;;;;;;;;1.60;1.00;;;;;;5006493;28;20035;-69
2021/11/10 05:42:57;;;;;;;;;;;1.60;1.00;;;;;;5005576;28;19981;-68
2021/11/10 05:45:23;;;;;;;;;;;1.60;1.00;;;;;;5007294;28;19988;-68
2021/11/10 05:47:49;;;;;;;;;;;1.60;1.00;;;;;;5006364;28;19914;-70
2021/11/10 05:50:14;;;;;;;;;;;1.50;1.00;;;;;;5007159;28;20366;-70
2021/11/10 05:52:42;;;;;;;;;;;1.50;1.00;;;;;;5005555;28;19924;-70
2021/11/10 05:55:07;;;;;;;;;;;1.40;1.00;;;;;;5006556;28;19963;-69
2021/11/10 05:57:37;;;;;;;;;;;1.40;1.00;;;;;;5005931;28;19997;-70
2021/11/10 06:00:03;;;;;;;;;;;1.40;1.00;;;;;;5007308;28;20394;-70
2021/11/10 06:02:29;;;;;;;;;;;1.40;1.00;;;;;;5004863;28;20317;-72
2021/11/10 06:04:55;;;;;;;;;;;1.40;1.00;;;;;;5005471;28;19929;-72
2021/11/10 06:07:20;;;;;;;;;;;1.50;1.00;;;;;;5006353;28;20004;-72
2021/11/10 06:09:46;;;;;;;;;;;1.50;1.00;;;;;;5006941;28;19921;-72
2021/11/10 06:12:11;;;;;;;;;;;1.40;1.00;;;;;;5004609;28;20281;-70
2021/11/10 06:14:37;;;;;;;;;;;1.40;1.00;;;;;;4987708;28;20005;-70
2021/11/10 06:17:04;;;;;;;;;;;1.30;1.00;;;;;;5005912;28;19981;-73
2021/11/10 06:19:30;;;;;;;;;;;1.30;1.00;;;;;;5006690;28;19913;-71
2021/11/10 06:21:55;;;;;;;;;;;1.20;1.00;;;;;;5005525;28;19913;-70
2021/11/10 06:24:21;;;;;;;;;;;1.30;1.00;;;;;;5006182;28;19930;-69
2021/11/10 06:26:48;;;;;;;;;;;1.30;1.00;;;;;;5005521;28;19917;-69
2021/11/10 06:29:14;;;;;;;;;;;1.30;1.00;;;;;;5005666;28;20330;-69
2021/11/10 06:31:40;;;;;;;;;;;1.40;1.00;;;;;;5006161;28;20024;-71
2021/11/10 06:34:05;;;;;;;;;;;1.50;1.00;;;;;;5004802;28;19932;-71
2021/11/10 06:36:31;;;;;;;;;;;1.70;1.00;;;;;;5005645;28;20088;-73
2021/11/10 06:38:56;;;;;;;;;;;1.80;1.00;;;;;;4989449;28;19925;-72
2021/11/10 06:41:22;;;;;;;;;;;2.00;1.00;;;;;;5005602;28;19916;-70
2021/11/10 06:43:47;;;;;;;;;;;2.20;1.00;;;;;;4987403;28;19918;-70
2021/11/10 06:46:13;;;;;;;;;;;2.40;1.00;;;;;;4986561;28;19953;-71
2021/11/10 06:48:39;;;;;;;;;;;2.80;1.00;;;;;;4985824;28;19910;-71
2021/11/10 06:51:05;;;;;;;;;;;3.10;1.00;;;;;;5005039;28;19921;-68
2021/11/10 06:53:30;;;;;;;;;;;3.30;99.90;;;;;;5005550;28;19917;-71
2021/11/10 06:55:56;;;;;;;;;;;3.50;99.90;;;;;;5006282;28;19910;-71
2021/11/10 06:58:21;;;;;;;;;;;3.90;1.00;;;;;;5005822;28;20005;-70
2021/11/10 07:00:47;;;;;;;;;;;4.30;1.00;;;;;;5008444;28;19920;-71
2021/11/10 07:03:16;;;;;;;;;;;4.80;99.90;;;;;;5009139;28;20397;-70
2021/11/10 07:05:41;;;;;;;;;;;5.00;57.20;;;;;;5009533;28;19983;-70
2021/11/10 07:08:07;;;;;;;;;;;5.10;99.90;;;;;;5010445;28;20338;-69
2021/11/10 07:10:32;;;;;;;;;;;5.10;1.00;;;;;;4992123;28;19909;-72
2021/11/10 07:12:58;;;;;;;;;;;5.20;1.00;;;;;;5006682;23;20020;-67
2021/11/10 07:15:24;;;;;;;;;;;4.70;99.90;;;;;;4990595;28;19910;-68
2021/11/10 07:17:53;;;;;;;;;;;4.00;1.00;;;;;;4988575;28;19945;-67
2021/11/10 07:20:19;;;;;;;;;;;3.60;1.00;;;;;;4991172;28;19910;-67
2021/11/10 07:22:45;;;;;;;;;;;3.80;1.00;;;;;;4989974;28;19910;-67
2021/11/10 07:25:11;;;;;;;;;;;4.10;1.00;;;;;;4990719;28;19928;-67
2021/11/10 07:27:37;;;;;;;;;;;4.50;99.90;;;;;;4989817;28;20334;-67
2021/11/10 07:30:04;;;;;;;;;;;4.70;1.00;;;;;;4991671;28;19996;-68
2021/11/10 07:32:29;;;;;;;;;;;4.90;1.00;;;;;;4991554;28;20301;-67
2021/11/10 07:34:55;;;;;;;;;;;5.10;1.00;;;;;;5008121;28;19917;-67
2021/11/10 07:37:21;;;;;;;;;;;5.30;99.90;;;;;;5011402;28;19910;-67
2021/11/10 07:39:46;;;;;;;;;;;6.10;99.90;;;;;;4992348;28;19910;-68
2021/11/10 07:42:12;;;;;;;;;;;7.70;1.00;;;;;;4991854;28;19913;-68
2021/11/10 07:44:39;;;;;;;;;;;9.30;1.00;;;;;;4992620;28;19909;-67
2021/11/10 07:47:13;;;;;;;;;;;10.10;99.90;;;;;;4991888;28;19922;-67
2021/11/10 07:49:38;;;;;;;;;;;10.00;99.90;;;;;;4998623;28;20385;-68
2021/11/10 07:52:04;;;;;;;;;;;9.70;99.90;;;;;;5010779;28;19988;-68
2021/11/10 07:54:29;;;;;;;;;;;9.20;99.90;;;;;;5012083;28;19914;-67
2021/11/10 07:56:55;;;;;;;;;;;9.20;99.90;;;;;;5011499;28;19913;-69
2021/11/10 07:59:20;;;;;;;;;;;9.20;99.90;;;;;;5012239;28;19909;-68
2021/11/10 08:01:46;;;;;;;;;;;8.90;99.90;;;;;;5010737;28;19932;-68
2021/11/10 08:04:11;;;;;;;;;;;8.80;99.90;;;;;;5011870;28;19924;-68
2021/11/10 08:06:37;;;;;;;;;;;8.60;99.90;;;;;;5011231;28;19932;-67
2021/11/10 08:09:02;;;;;;;;;;;8.50;99.90;;;;;;5011902;28;20354;-67
2021/11/10 08:11:28;;;;;;;;;;;8.70;99.90;;;;;;5011259;28;19914;-67
2021/11/10 08:13:53;;;;;;;;;;;9.00;99.90;;;;;;5010015;28;19917;-67
2021/11/10 08:16:19;;;;;;;;;;;8.90;99.90;;;;;;5013396;28;19909;-66
2021/11/10 08:18:44;;;;;;;;;;;9.00;99.90;;;;;;4996307;28;20639;-67
2021/11/10 08:21:10;;;;;;;;;;;9.00;99.90;;;;;;4994494;28;19910;-67
2021/11/10 08:23:36;;;;;;;;;;;8.80;99.90;;;;;;4991705;28;20323;-67
2021/11/10 08:26:03;;;;;;;;;;;8.50;99.90;;;;;;4993443;28;19917;-66
2021/11/10 08:28:29;;;;;;;;;;;8.70;99.90;;;;;;4997789;28;20017;-66
2021/11/10 08:30:55;;;;;;;;;;;9.10;99.90;;;;;;5001904;28;19921;-66
2021/11/10 08:33:20;;;;;;;;;;;9.50;99.90;;;;;;5001863;28;19913;-68
2021/11/10 08:35:46;;;;;;;;;;;9.70;99.90;;;;;;5017134;28;19920;-67
2021/11/10 08:38:12;;;;;;;;;;;10.30;99.90;;;;;;5015616;28;19956;-67
2021/11/10 08:40:38;;;;;;;;;;;10.90;99.90;;;;;;5008712;28;19933;-67
2021/11/10 08:43:04;;;;;;;;;;;11.00;99.90;;;;;;5015263;28;19917;-67
2021/11/10 08:45:34;;;;;;;;;;;10.70;99.90;;;;;;5011850;28;20007;-67
2021/11/10 08:48:03;;;;;;;;;;;9.80;99.90;;;;;;5010467;28;19913;-67
2021/11/10 08:50:29;;;;;;;;;;;9.60;99.90;;;;;;4996624;28;19910;-66
2021/11/10 08:52:55;;;;;;;;;;;9.50;99.90;;;;;;4991348;28;19925;-67
2021/11/10 08:55:21;;;;;;;;;;;9.50;99.90;;;;;;4992037;28;19910;-67
2021/11/10 08:57:47;;;;;;;;;;;9.60;99.90;;;;;;4991048;28;19914;-67
2021/11/10 09:00:15;;;;;;;;;;;10.00;99.90;;;;;;4990422;28;20286;-67
2021/11/10 09:02:40;;;;;;;;;;;9.70;99.90;;;;;;4990418;28;19921;-67
2021/11/10 09:05:07;;;;;;;;;;;9.10;99.90;;;;;;4991988;28;19910;-67
2021/11/10 09:07:32;;;;;;;;;;;9.00;99.90;;;;;;4991057;28;19985;-67
2021/11/10 09:09:59;;;;;;;;;;;8.80;99.90;;;;;;4991422;28;20043;-68
2021/11/10 09:12:24;;;;;;;;;;;8.50;99.90;;;;;;4990024;28;19924;-67
2021/11/10 09:14:50;;;;;;;;;;;8.20;99.90;;;;;;4991278;28;20294;-67
2021/11/10 09:17:15;;;;;;;;;;;8.30;99.90;;;;;;4991034;28;19983;-67
2021/11/10 09:19:41;;;;;;;;;;;8.10;99.90;;;;;;4991070;28;19920;-67
2021/11/10 09:22:07;;;;;;;;;;;8.00;99.90;;;;;;4989990;28;19954;-67
2021/11/10 09:24:33;;;;;;;;;;;7.90;99.90;;;;;;4990795;28;19960;-67
2021/11/10 09:26:59;;;;;;;;;;;7.90;99.90;;;;;;4991106;28;19965;-67
2021/11/10 09:29:24;;;;;;;;;;;7.90;99.90;;;;;;4990592;28;20350;-68
2021/11/10 09:31:50;;;;;;;;;;;7.80;99.90;;;;;;4989879;28;19917;-67
2021/11/10 09:34:16;;;;;;;;;;;7.80;99.90;;;;;;5001210;28;19976;-68
2021/11/10 09:36:47;;;;;;;;;;;7.80;99.90;;;;;;5011075;28;19913;-66
2021/11/10 09:39:20;;;;;;;;;;;7.80;99.90;;;;;;4995208;28;19917;-67
2021/11/10 09:41:48;;;;;;;;;;;8.00;99.90;;;;;;4990475;28;19910;-67
2021/11/10 09:44:13;;;;;;;;;;;8.80;99.90;;;;;;4990156;28;20343;-68
2021/11/10 09:46:39;;;;;;;;;;;9.00;99.90;;;;;;4990616;28;19964;-68
2021/11/10 09:49:05;;;;;;;;;;;9.00;99.90;;;;;;4993389;28;20522;-67
2021/11/10 09:51:31;;;;;;;;;;;8.90;99.90;;;;;;5000525;28;19917;-68
2021/11/10 09:53:57;;;;;;;;;;;8.80;99.90;;;;;;5001673;28;19920;-67
2021/11/10 09:56:24;;;;;;;;;;;8.60;99.90;;;;;;5009568;28;20390;-67
2021/11/10 09:58:50;;;;;;;;;;;8.30;99.90;;;;;;5009915;28;20574;-67
2021/11/10 10:01:16;;;;;;;;;;;8.10;99.90;;;;;;5009482;28;20374;-67
2021/11/10 10:03:44;;;;;;;;;;;8.10;99.90;;;;;;5000916;28;19917;-66
2021/11/10 10:06:12;;;;;;;;;;;8.30;99.90;;;;;;5011152;28;19909;-67
2021/11/10 10:08:38;;;;;;;;;;;8.60;99.90;;;;;;5010605;28;19910;-66
2021/11/10 10:11:03;;;;;;;;;;;8.70;99.90;;;;;;5011064;28;19910;-67
2021/11/10 10:13:29;;;;;;;;;;;8.80;99.90;;;;;;5010200;28;20412;-67
2021/11/10 10:15:54;;;;;;;;;;;8.70;99.90;;;;;;5010973;28;19933;-67
2021/11/10 10:18:22;;;;;;;;;;;8.60;99.90;;;;;;4993084;28;20347;-67
2021/11/10 10:20:55;;;;;;;;;;;8.40;99.90;;;;;;4989631;28;20287;-67
2021/11/10 10:23:22;;;;;;;;;;;8.40;99.90;;;;;;4989549;28;19910;-67
2021/11/10 10:25:48;;;;;;;;;;;8.30;99.90;;;;;;4990084;28;19910;-68
2021/11/10 10:28:18;;;;;;;;;;;8.10;99.90;;;;;;4989453;28;19964;-66
2021/11/10 10:30:45;;;;;;;;;;;7.90;99.90;;;;;;4989559;28;19920;-67
2021/11/10 10:33:15;;;;;;;;;;;7.90;99.90;;;;;;4990153;28;19917;-67
2021/11/10 10:35:43;;;;;;;;;;;7.80;99.90;;;;;;5009307;28;19920;-67
2021/11/10 10:38:10;;;;;;;;;;;7.50;99.90;;;;;;5002543;28;19953;-67
2021/11/10 10:40:36;;;;;;;;;;;7.50;99.90;;;;;;4990065;28;20552;-66
2021/11/10 10:43:03;;;;;;;;;;;7.50;99.90;;;;;;4988273;28;20301;-67
2021/11/10 10:45:42;;;;;;;;;;;7.30;99.90;;;;;;4990801;28;20213;-68
2021/11/10 10:48:12;;;;;;;;;;;7.30;99.90;;;;;;4990182;28;20322;-68
2021/11/10 10:50:42;;;;;;;;;;;7.10;99.90;;;;;;5005364;28;19910;-67
2021/11/10 10:53:10;;;;;;;;;;;7.00;99.90;;;;;;5008890;28;19914;-67
2021/11/10 10:55:37;;;;;;;;;;;6.90;1.00;;;;;;5009223;28;19917;-67
2021/11/10 10:58:05;;;;;;;;;;;6.90;1.00;;;;;;5009459;28;19909;-67
2021/11/10 11:00:30;;;;;;;;;;;7.00;1.00;;;;;;5009638;28;20290;-68
2021/11/10 11:03:16;;;;;;;;;;;7.10;1.00;;;;;;5008102;28;19909;-66
2021/11/10 11:05:45;;;;;;;;;;;7.30;1.00;;;;;;5009134;28;19913;-67
2021/11/10 11:08:27;;;;;;;;;;;7.50;1.00;;;;;;5007619;28;19910;-67
2021/11/10 11:11:00;;;;;;;;;;;7.70;1.00;;;;;;5008272;28;20005;-68
2021/11/10 11:13:44;;;;;;;;;;;8.00;1.00;;;;;;5007507;28;19921;-67
2021/11/10 11:16:10;;;;;;;;;;;8.40;99.90;;;;;;5009427;28;20398;-67
2021/11/10 11:18:36;;;;;;;;;;;8.70;99.90;;;;;;4969339;28;19982;-66
2021/11/10 11:21:21;;;;;;;;;;;9.10;99.90;;;;;;4969367;28;20298;-67
2021/11/10 11:23:46;;;;;;;;;;;9.40;99.90;;;;;;4968728;28;19915;-67
2021/11/10 11:26:31;;;;;;;;;;;9.50;99.90;;;;;;4988722;28;19967;-66
2021/11/10 11:28:58;;;;;;;;;;;9.30;99.90;;;;;;4988762;28;20346;-67
2021/11/10 11:31:32;;;;;;;;;;;9.60;99.90;;;;;;4988649;28;19920;-67
2021/11/10 11:33:59;;;;;;;;;;;9.90;99.90;;;;;;4995755;28;20402;-67
2021/11/10 11:36:43;;;;;;;;;;;10.30;99.90;;;;;;5008474;28;19910;-67
2021/11/10 11:39:09;;;;;;;;;;;10.60;99.90;;;;;;5001201;28;20012;-68
2021/11/10 11:41:35;;;;;;;;;;;10.70;99.90;;;;;;5006293;28;20384;-68
2021/11/10 11:44:00;;;;;;;;;;;10.90;99.90;;;;;;5008059;28;19909;-67
2021/11/10 11:46:26;;;;;;;;;;;11.40;99.90;;;;;;5009539;28;19909;-68
2021/11/10 11:48:55;;;;;;;;;;;11.80;99.90;;;;;;5011262;28;20059;-68
2021/11/10 11:51:21;;;;;;;;;;;11.80;99.90;;;;;;4991514;28;19920;-67
2021/11/10 11:53:46;;;;;;;;;;;11.70;99.90;;;;;;4990330;28;19914;-67
2021/11/10 11:56:13;;;;;;;;;;;12.20;99.90;;;;;;4992191;28;19913;-69
2021/11/10 11:58:42;;;;;;;;;;;12.40;99.90;;;;;;4991873;28;19910;-68
2021/11/10 12:01:11;;;;;;;;;;;12.40;99.90;;;;;;4990579;28;20007;-67
2021/11/10 12:03:38;;;;;;;;;;;12.40;99.90;;;;;;4991490;28;19991;-67
2021/11/10 12:06:03;;;;;;;;;;;12.70;99.90;;;;;;4991988;28;20001;-68
2021/11/10 12:08:48;;;;;;;;;;;12.70;99.90;;;;;;4992461;28;19949;-66
2021/11/10 12:11:20;;;;;;;;;;;12.70;99.90;;;;;;4992227;28;19917;-66
2021/11/10 12:14:04;;;;;;;;;;;12.80;99.90;;;;;;4991244;28;19929;-66
2021/11/10 12:16:45;;;;;;;;;;;12.70;99.90;;;;;;4991828;28;19910;-67
2021/11/10 12:19:11;;;;;;;;;;;12.20;99.90;;;;;;4991921;28;19921;-67
2021/11/10 12:21:39;;;;;;;;;;;11.70;99.90;;;;;;4991296;28;19910;-67
2021/11/10 12:24:09;;;;;;;;;;;11.10;99.90;;;;;;4990880;28;19917;-66
2021/11/10 12:26:54;;;;;;;;;;;10.80;99.90;;;;;;4991446;28;20362;-66
2021/11/10 12:29:37;;;;;;;;;;;10.50;99.90;;;;;;4991136;28;19924;-67
2021/11/10 12:32:05;;;;;;;;;;;10.30;99.90;;;;;;4990653;28;19910;-67
2021/11/10 12:34:31;;;;;;;;;;;10.20;99.90;;;;;;5003405;28;19910;-67
2021/11/10 12:37:03;;;;;;;;;;;10.00;99.90;;;;;;5010763;28;20274;-67
2021/11/10 12:39:32;;;;;;;;;;;10.10;99.90;;;;;;4993128;28;20442;-67
2021/11/10 12:42:05;;;;;;;;;;;10.00;99.90;;;;;;4990405;28;19913;-67
2021/11/10 12:44:32;;;;;;;;;;;9.90;99.90;;;;;;4991236;28;19921;-67
2021/11/10 12:46:58;;;;;;;;;;;10.10;99.90;;;;;;4991211;28;19913;-67
2021/11/10 12:49:25;;;;;;;;;;;10.00;99.90;;;;;;4996927;28;19909;-67
2021/11/10 12:52:09;;;;;;;;;;;10.00;99.90;;;;;;5009825;28;19992;-66
2021/11/10 12:54:35;;;;;;;;;;;10.00;99.90;;;;;;5011722;28;19913;-67
2021/11/10 12:57:00;;;;;;;;;;;10.00;99.90;;;;;;5010655;28;19913;-67
2021/11/10 12:59:30;;;;;;;;;;;10.00;99.90;;;;;;5010092;28;20250;-68
2021/11/10 13:01:57;;;;;;;;;;;10.20;99.90;;;;;;5007431;28;19924;-67
2021/11/10 13:04:24;;;;;;;;;;;10.20;99.90;;;;;;5002506;28;19909;-68
2021/11/10 13:06:55;;;;;;;;;;;10.20;99.90;;;;;;5010057;28;20040;-68
2021/11/10 13:09:37;;;;;;;;;;;10.20;99.90;;;;;;5011073;28;19977;-67
2021/11/10 13:12:03;;;;;;;;;;;10.30;99.90;;;;;;5007814;28;19921;-67
2021/11/10 13:14:29;;;;;;;;;;;10.10;99.90;;;;;;5011214;28;19917;-67
2021/11/10 13:16:56;;;;;;;;;;;10.10;99.90;;;;;;5002738;28;19917;-68
2021/11/10 13:19:23;;;;;;;;;;;10.10;99.90;;;;;;4990504;28;19918;-68
2021/11/10 13:21:54;;;;;;;;;;;10.00;99.90;;;;;;4989203;28;19997;-67
2021/11/10 13:24:19;;;;;;;;;;;9.80;99.90;;;;;;4990757;28;20040;-68
2021/11/10 13:26:52;;;;;;;;;;;9.70;99.90;;;;;;4988907;28;20451;-67
2021/11/10 13:29:19;;;;;;;;;;;9.70;99.90;;;;;;4990369;28;20068;-67
2021/11/10 13:31:44;;;;;;;;;;;9.60;99.90;;;;;;4989648;28;20044;-67
2021/11/10 13:34:10;;;;;;;;;;;9.60;99.90;;;;;;4994994;28;20040;-67
2021/11/10 13:36:37;;;;;;;;;;;9.50;99.90;;;;;;4990028;28;19910;-67
2021/11/10 13:39:09;;;;;;;;;;;9.60;99.90;;;;;;4989542;28;19956;-67
2021/11/10 13:41:46;;;;;;;;;;;9.60;99.90;;;;;;4990340;28;20456;-67
2021/11/10 13:44:22;;;;;;;;;;;9.70;99.90;;;;;;4989964;28;19914;-67
2021/11/10 13:46:58;;;;;;;;;;;9.70;99.90;;;;;;4990049;28;19920;-68
2021/11/10 13:49:24;;;;;;;;;;;9.60;99.90;;;;;;4990580;28;19910;-67
2021/11/10 13:52:02;;;;;;;;;;;9.60;99.90;;;;;;4989032;28;19910;-68
2021/11/10 13:54:32;;;;;;;;;;;9.60;99.90;;;;;;4990412;28;20348;-67
2021/11/10 13:56:59;;;;;;;;;;;9.50;99.90;;;;;;4989768;28;19914;-68
2021/11/10 13:59:32;;;;;;;;;;;9.40;99.90;;;;;;4990295;28;19917;-68
2021/11/10 14:02:00;;;;;;;;;;;9.30;99.90;;;;;;4988917;28;19913;-68
2021/11/10 14:04:28;;;;;;;;;;;9.20;99.90;;;;;;4988318;28;19910;-68
2021/11/10 14:07:08;;;;;;;;;;;9.10;99.90;;;;;;4989491;28;19910;-68
2021/11/10 14:09:54;;;;;;;;;;;9.00;1.00;;;;;;4989651;28;19995;-68
2021/11/10 14:12:28;;;;;;;;;;;9.10;1.00;;;;;;4987423;28;19957;-68
2021/11/10 14:14:54;;;;;;;;;;;9.00;1.00;;;;;;4989347;28;20283;-68
2021/11/10 14:17:21;;;;;;;;;;;9.10;1.00;;;;;;4989475;28;19914;-69
2021/11/10 14:19:51;;;;;;;;;;;9.20;1.00;;;;;;4989999;28;19910;-68
2021/11/10 14:22:20;;;;;;;;;;;9.30;1.00;;;;;;4988080;28;19953;-67
2021/11/10 14:24:45;;;;;;;;;;;9.40;1.00;;;;;;4989767;28;19930;-68
2021/11/10 14:27:11;;;;;;;;;;;9.50;99.90;;;;;;4989983;28;19994;-68
2021/11/10 14:29:37;;;;;;;;;;;9.40;99.90;;;;;;4990001;28;19965;-68
2021/11/10 14:32:05;;;;;;;;;;;9.30;99.90;;;;;;4988818;28;19910;-69
2021/11/10 14:34:31;;;;;;;;;;;9.20;1.00;;;;;;5001361;28;20340;-68